createdAt,value
2018-12-08T00:00:31.432Z,61.70
2018-12-08T00:03:01.049Z,61.40
2018-12-08T00:05:30.753Z,61.50
2018-12-08T00:08:00.541Z,61.60
2018-12-08T00:10:30.206Z,61.60
2018-12-08T00:12:59.852Z,62.20
2018-12-08T00:15:29.505Z,62.50
2018-12-08T00:17:59.217Z,62.80
2018-12-08T00:20:29.760Z,62.30
2018-12-08T00:22:59.388Z,61.60
2018-12-08T00:25:29.008Z,61.80
2018-12-08T00:27:58.869Z,61.60
2018-12-08T00:30:39.908Z,61.20
2018-12-08T00:33:09.496Z,61.30
2018-12-08T00:35:39.197Z,60.70
2018-12-08T00:38:08.987Z,60.30
2018-12-08T00:40:38.601Z,60.20
2018-12-08T00:43:08.897Z,60.20
2018-12-08T00:45:38.580Z,60.70
2018-12-08T00:48:08.307Z,59.50
2018-12-08T00:50:37.950Z,59.50
2018-12-08T00:53:07.580Z,59.30
2018-12-08T00:55:37.208Z,59.40
2018-12-08T00:58:07.925Z,59.20
2018-12-08T01:00:38.042Z,59.40
2018-12-08T01:03:20.680Z,59.10
2018-12-08T01:05:51.905Z,59.00
2018-12-08T01:08:24.892Z,59.20
2018-12-08T01:10:54.621Z,59.50
2018-12-08T01:13:24.591Z,59.30
2018-12-08T01:15:56.762Z,59.50
2018-12-08T01:18:30.470Z,59.40
2018-12-08T01:21:00.191Z,59.50
2018-12-08T01:23:30.129Z,59.50
2018-12-08T01:25:59.937Z,59.60
2018-12-08T01:28:29.612Z,59.40
2018-12-08T01:30:59.206Z,59.40
2018-12-08T01:33:28.823Z,59.30
2018-12-08T01:35:58.531Z,59.30
2018-12-08T01:38:28.259Z,58.80
2018-12-08T01:40:57.860Z,58.60
2018-12-08T01:43:27.457Z,58.50
2018-12-08T01:45:57.131Z,58.50
2018-12-08T01:48:26.979Z,58.90
2018-12-08T01:50:56.624Z,59.10
2018-12-08T01:53:26.309Z,59.50
2018-12-08T01:55:56.135Z,58.80
2018-12-08T01:58:25.891Z,58.90
2018-12-08T02:00:55.797Z,59.20
2018-12-08T02:03:25.524Z,59.20
2018-12-08T02:05:55.154Z,59.20
2018-12-08T02:08:24.975Z,59.00
2018-12-08T02:10:56.556Z,59.10
2018-12-08T02:13:26.217Z,58.80
2018-12-08T02:15:55.855Z,58.90
2018-12-08T02:18:25.491Z,59.10
2018-12-08T02:20:55.171Z,58.90
2018-12-08T02:23:25.443Z,58.80
2018-12-08T02:25:55.134Z,58.90
2018-12-08T02:28:24.780Z,58.50
2018-12-08T02:30:54.508Z,58.50
2018-12-08T02:33:24.278Z,58.60
2018-12-08T02:35:53.950Z,58.60
2018-12-08T02:38:23.654Z,58.70
2018-12-08T02:40:53.487Z,58.50
2018-12-08T02:43:23.117Z,58.50
2018-12-08T02:45:52.857Z,58.60
2018-12-08T02:48:22.476Z,58.70
2018-12-08T02:50:52.138Z,58.50
2018-12-08T02:53:21.763Z,58.40
2018-12-08T02:55:51.418Z,58.80
2018-12-08T02:58:21.090Z,58.90
2018-12-08T03:00:50.838Z,58.60
2018-12-08T03:03:20.828Z,58.90
2018-12-08T03:05:54.221Z,58.80
2018-12-08T03:08:23.944Z,58.90
2018-12-08T03:11:00.749Z,59.10
2018-12-08T03:13:38.951Z,59.00
2018-12-08T03:16:16.331Z,58.90
2018-12-08T03:18:49.312Z,59.30
2018-12-08T03:21:20.932Z,59.40
2018-12-08T03:23:54.432Z,59.40
2018-12-08T03:26:24.107Z,59.50
2018-12-08T03:28:57.462Z,59.40
2018-12-08T03:31:28.685Z,59.50
2018-12-08T03:33:58.387Z,59.60
2018-12-08T03:36:28.000Z,59.50
2018-12-08T03:38:57.608Z,59.40
2018-12-08T03:41:27.951Z,59.00
2018-12-08T03:43:57.602Z,59.10
2018-12-08T03:46:27.397Z,59.00
2018-12-08T03:48:57.069Z,59.00
2018-12-08T03:51:26.799Z,58.80
2018-12-08T03:53:56.459Z,58.90
2018-12-08T03:56:26.276Z,58.70
2018-12-08T03:58:59.785Z,58.80
2018-12-08T04:01:31.253Z,58.50
2018-12-08T04:04:04.636Z,58.20
2018-12-08T04:06:34.385Z,58.50
2018-12-08T04:09:07.377Z,58.00
2018-12-08T04:11:40.544Z,58.40
2018-12-08T04:14:17.407Z,58.20
2018-12-08T04:16:54.267Z,58.40
2018-12-08T04:19:24.457Z,58.20
2018-12-08T04:21:57.720Z,58.70
2018-12-08T04:24:32.273Z,58.80
2018-12-08T04:27:02.069Z,59.00
2018-12-08T04:29:33.366Z,59.20
2018-12-08T04:32:11.145Z,59.00
2018-12-08T04:34:40.731Z,59.20
2018-12-08T04:37:15.486Z,59.50
2018-12-08T04:39:46.971Z,60.00
2018-12-08T04:42:18.408Z,60.00
2018-12-08T04:44:48.036Z,60.10
2018-12-08T04:47:17.692Z,60.40
2018-12-08T04:49:47.299Z,60.70
2018-12-08T04:52:16.981Z,60.90
2018-12-08T04:54:46.667Z,61.00
2018-12-08T04:57:16.286Z,61.10
2018-12-08T04:59:46.828Z,61.30
2018-12-08T05:02:17.397Z,61.40
2018-12-08T05:04:47.313Z,61.50
2018-12-08T05:07:17.956Z,61.40
2018-12-08T05:09:47.612Z,61.50
2018-12-08T05:12:17.382Z,61.50
2018-12-08T05:14:47.017Z,61.20
2018-12-08T05:17:16.727Z,61.30
2018-12-08T05:19:46.400Z,61.50
2018-12-08T05:22:16.216Z,61.70
2018-12-08T05:24:45.877Z,61.80
2018-12-08T05:27:15.605Z,62.10
2018-12-08T05:29:45.415Z,62.20
2018-12-08T05:32:15.121Z,62.10
2018-12-08T05:34:44.816Z,62.00
2018-12-08T05:37:14.517Z,62.10
2018-12-08T05:39:44.330Z,62.20
2018-12-08T05:42:14.091Z,62.30
2018-12-08T05:44:44.725Z,62.50
2018-12-08T05:47:14.566Z,62.40
2018-12-08T05:49:44.284Z,62.60
2018-12-08T05:52:14.023Z,62.70
2018-12-08T05:54:43.836Z,62.80
2018-12-08T05:57:13.443Z,62.90
2018-12-08T05:59:43.154Z,63.10
2018-12-08T06:02:12.952Z,63.30
2018-12-08T06:04:42.840Z,63.30
2018-12-08T06:07:12.594Z,63.50
2018-12-08T06:09:42.301Z,63.60
2018-12-08T06:12:12.052Z,63.60
2018-12-08T06:14:41.769Z,63.60
2018-12-08T06:17:11.441Z,63.80
2018-12-08T06:19:41.101Z,63.90
2018-12-08T06:22:10.776Z,63.90
2018-12-08T06:24:40.560Z,64.50
2018-12-08T06:27:17.548Z,63.90
2018-12-08T06:29:47.501Z,64.00
2018-12-08T06:32:17.144Z,64.10
2018-12-08T06:34:46.867Z,64.40
2018-12-08T06:37:16.564Z,64.40
2018-12-08T06:39:46.305Z,64.40
2018-12-08T06:42:16.034Z,64.30
2018-12-08T06:44:45.636Z,64.20
2018-12-08T06:47:15.349Z,64.00
2018-12-08T06:49:45.068Z,63.90
2018-12-08T06:52:15.988Z,63.70
2018-12-08T06:54:45.719Z,63.70
2018-12-08T06:57:15.517Z,63.60
2018-12-08T06:59:45.434Z,63.40
2018-12-08T07:02:15.148Z,63.20
2018-12-08T07:04:44.918Z,63.20
2018-12-08T07:07:14.915Z,63.30
2018-12-08T07:09:44.709Z,63.40
2018-12-08T07:12:14.481Z,63.50
2018-12-08T07:14:44.295Z,63.60
2018-12-08T07:17:14.035Z,63.60
2018-12-08T07:19:43.837Z,63.80
2018-12-08T07:22:13.702Z,64.00
2018-12-08T07:24:43.561Z,63.90
2018-12-08T07:27:13.360Z,63.60
2018-12-08T07:29:43.302Z,63.70
2018-12-08T07:32:13.095Z,63.70
2018-12-08T07:34:42.851Z,63.90
2018-12-08T07:37:12.976Z,64.00
2018-12-08T07:39:42.856Z,63.80
2018-12-08T07:42:12.509Z,63.90
2018-12-08T07:44:42.418Z,64.00
2018-12-08T07:47:12.141Z,63.70
2018-12-08T07:49:41.901Z,63.40
2018-12-08T07:52:11.665Z,63.60
2018-12-08T07:54:41.480Z,63.60
2018-12-08T07:57:11.537Z,63.60
2018-12-08T07:59:41.340Z,63.40
2018-12-08T08:02:11.557Z,63.30
2018-12-08T08:04:41.315Z,63.50
2018-12-08T08:07:11.234Z,63.30
2018-12-08T08:09:41.331Z,63.30
2018-12-08T08:12:11.008Z,63.60
2018-12-08T08:14:40.842Z,63.60
2018-12-08T08:17:10.564Z,63.60
2018-12-08T08:19:40.462Z,63.60
2018-12-08T08:22:10.225Z,63.60
2018-12-08T08:24:40.023Z,63.40
2018-12-08T08:27:09.780Z,63.70
2018-12-08T08:29:39.515Z,63.70
2018-12-08T08:32:09.288Z,63.80
2018-12-08T08:34:39.288Z,63.90
2018-12-08T08:37:09.597Z,63.70
2018-12-08T08:39:39.460Z,63.70
2018-12-08T08:42:09.302Z,64.00
2018-12-08T08:44:39.076Z,63.90
2018-12-08T08:47:08.865Z,63.60
2018-12-08T08:49:38.540Z,63.70
2018-12-08T08:52:08.245Z,63.60
2018-12-08T08:54:37.915Z,63.60
2018-12-08T08:57:07.721Z,63.60
2018-12-08T08:59:37.454Z,63.00
2018-12-08T09:02:07.183Z,63.10
2018-12-08T09:04:37.009Z,63.10
2018-12-08T09:07:06.806Z,63.10
2018-12-08T09:09:36.584Z,63.10
2018-12-08T09:12:06.438Z,63.20
2018-12-08T09:14:36.188Z,63.30
2018-12-08T09:17:05.948Z,63.50
2018-12-08T09:19:35.723Z,63.40
2018-12-08T09:22:07.236Z,63.20
2018-12-08T09:24:37.407Z,62.90
2018-12-08T09:27:07.068Z,62.80
2018-12-08T09:29:36.904Z,62.80
2018-12-08T09:32:06.653Z,62.80
2018-12-08T09:34:36.504Z,62.90
2018-12-08T09:37:06.244Z,63.60
2018-12-08T09:39:35.874Z,62.90
2018-12-08T09:42:05.696Z,62.80
2018-12-08T09:44:35.425Z,62.20
2018-12-08T09:47:05.297Z,62.10
2018-12-08T09:49:35.003Z,62.30
2018-12-08T09:52:04.802Z,62.30
2018-12-08T09:54:34.544Z,62.40
2018-12-08T09:57:04.382Z,62.70
2018-12-08T09:59:34.083Z,62.50
2018-12-08T10:02:03.883Z,63.00
2018-12-08T10:04:33.621Z,62.60
2018-12-08T10:07:03.748Z,62.60
2018-12-08T10:09:33.485Z,61.80
2018-12-08T10:12:03.132Z,62.00
2018-12-08T10:14:32.864Z,61.90
2018-12-08T10:17:02.918Z,62.20
2018-12-08T10:19:32.668Z,62.30
2018-12-08T10:22:02.361Z,62.50
2018-12-08T10:24:32.179Z,62.50
2018-12-08T10:27:02.161Z,62.70
2018-12-08T10:29:31.905Z,62.50
2018-12-08T10:32:01.765Z,62.40
2018-12-08T10:34:31.714Z,62.20
2018-12-08T10:37:01.897Z,61.90
2018-12-08T10:39:31.684Z,62.30
2018-12-08T10:42:01.412Z,61.90
2018-12-08T10:44:31.180Z,62.10
2018-12-08T10:47:01.051Z,61.80
2018-12-08T10:49:30.891Z,62.10
2018-12-08T10:52:00.656Z,62.20
2018-12-08T10:54:32.617Z,62.50
2018-12-08T10:57:02.352Z,62.60
2018-12-08T10:59:32.029Z,62.80
2018-12-08T11:02:03.054Z,62.40
2018-12-08T11:04:33.347Z,62.50
2018-12-08T11:07:03.082Z,62.50
2018-12-08T11:09:32.824Z,62.40
2018-12-08T11:12:02.527Z,62.10
2018-12-08T11:14:32.472Z,62.20
2018-12-08T11:17:02.434Z,62.30
2018-12-08T11:19:32.242Z,62.30
2018-12-08T11:22:02.138Z,62.50
2018-12-08T11:24:31.934Z,62.60
2018-12-08T11:27:01.848Z,62.00
2018-12-08T11:29:31.700Z,62.10
2018-12-08T11:32:01.515Z,62.50
2018-12-08T11:34:31.332Z,62.40
2018-12-08T11:37:01.089Z,62.30
2018-12-08T11:39:30.860Z,62.30
2018-12-08T11:42:00.817Z,62.30
2018-12-08T11:44:30.893Z,62.60
2018-12-08T11:47:00.920Z,62.80
2018-12-08T11:49:31.545Z,62.60
2018-12-08T11:52:01.495Z,62.80
2018-12-08T11:54:31.330Z,62.80
2018-12-08T11:57:01.407Z,62.50
2018-12-08T11:59:31.160Z,62.20
2018-12-08T12:02:00.930Z,62.30
2018-12-08T12:04:30.667Z,62.70
2018-12-08T12:07:00.712Z,62.90
2018-12-08T12:09:30.593Z,63.10
2018-12-08T12:12:00.455Z,63.10
2018-12-08T12:14:47.151Z,63.20
2018-12-08T12:17:16.890Z,63.50
2018-12-08T12:19:46.832Z,63.30
2018-12-08T12:22:16.716Z,63.30
2018-12-08T12:24:46.614Z,63.50
2018-12-08T12:27:16.509Z,63.60
2018-12-08T12:29:47.053Z,63.90
2018-12-08T12:32:17.436Z,64.00
2018-12-08T12:34:47.377Z,64.10
2018-12-08T12:37:18.129Z,64.30
2018-12-08T12:39:48.256Z,64.50
2018-12-08T12:42:18.024Z,64.70
2018-12-08T12:44:47.781Z,64.40
2018-12-08T12:47:17.680Z,64.20
2018-12-08T12:49:47.569Z,64.20
2018-12-08T12:52:17.710Z,64.20
2018-12-08T12:54:47.602Z,64.50
2018-12-08T12:57:17.358Z,64.50
2018-12-08T12:59:47.445Z,64.80
2018-12-08T13:02:17.149Z,64.80
2018-12-08T13:04:47.040Z,64.90
2018-12-08T13:07:16.799Z,64.80
2018-12-08T13:09:46.606Z,64.80
2018-12-08T13:12:16.527Z,64.80
2018-12-08T13:14:46.235Z,64.90
2018-12-08T13:17:16.006Z,65.00
2018-12-08T13:19:45.871Z,65.10
2018-12-08T13:22:15.548Z,65.20
2018-12-08T13:24:45.460Z,65.20
2018-12-08T13:27:15.171Z,65.40
2018-12-08T13:29:44.913Z,65.40
2018-12-08T13:32:14.842Z,65.50
2018-12-08T13:34:44.634Z,65.60
2018-12-08T13:37:14.373Z,65.70
2018-12-08T13:39:44.152Z,65.80
2018-12-08T13:42:13.947Z,65.90
2018-12-08T13:44:43.718Z,65.90
2018-12-08T13:47:13.454Z,66.00
2018-12-08T13:49:43.283Z,66.00
2018-12-08T13:52:12.957Z,66.40
2018-12-08T13:54:49.395Z,66.50
2018-12-08T13:57:19.739Z,66.40
2018-12-08T13:59:57.564Z,66.40
2018-12-08T14:02:28.366Z,66.30
2018-12-08T14:04:58.324Z,66.30
2018-12-08T14:07:28.194Z,66.10
2018-12-08T14:09:58.959Z,66.00
2018-12-08T14:12:28.824Z,66.20
2018-12-08T14:14:58.776Z,66.40
2018-12-08T14:17:28.562Z,66.50
2018-12-08T14:20:13.039Z,66.50
2018-12-08T14:22:43.404Z,66.50
2018-12-08T14:25:13.215Z,66.50
2018-12-08T14:27:43.038Z,66.60
2018-12-08T14:30:12.973Z,66.50
2018-12-08T14:32:43.797Z,66.70
2018-12-08T14:35:13.857Z,66.80
2018-12-08T14:37:44.738Z,66.70
2018-12-08T14:40:14.570Z,66.70
2018-12-08T14:42:44.484Z,66.80
2018-12-08T14:45:15.535Z,66.80
2018-12-08T14:47:45.357Z,66.70
2018-12-08T14:50:15.101Z,66.70
2018-12-08T14:52:44.948Z,66.60
2018-12-08T14:55:14.696Z,66.70
2018-12-08T14:57:44.629Z,66.80
2018-12-08T15:00:14.762Z,66.80
2018-12-08T15:02:44.839Z,66.80
2018-12-08T15:05:14.870Z,66.70
2018-12-08T15:07:44.988Z,66.80
2018-12-08T15:10:14.861Z,66.80
2018-12-08T15:15:13.500Z,66.90
2018-12-08T15:17:43.221Z,66.90
2018-12-08T15:20:12.964Z,66.90
2018-12-08T15:22:42.629Z,67.00
2018-12-08T15:25:12.544Z,67.00
2018-12-08T15:27:42.189Z,67.00
2018-12-08T15:30:12.013Z,67.10
2018-12-08T15:32:41.675Z,67.10
2018-12-08T15:35:11.572Z,67.10
2018-12-08T15:37:41.492Z,67.10
2018-12-08T15:40:11.350Z,67.30
2018-12-08T15:42:41.245Z,67.30
2018-12-08T15:45:11.488Z,67.30
2018-12-08T15:47:41.406Z,67.40
2018-12-08T15:50:11.275Z,67.20
2018-12-08T15:52:41.156Z,67.10
2018-12-08T15:55:10.856Z,67.20
2018-12-08T15:57:40.606Z,67.10
2018-12-08T16:00:11.752Z,67.20
2018-12-08T16:02:41.443Z,67.20
2018-12-08T16:05:13.360Z,67.20
2018-12-08T16:07:43.064Z,67.30
2018-12-08T16:10:12.888Z,67.50
2018-12-08T16:12:42.486Z,67.70
2018-12-08T16:15:12.317Z,67.80
2018-12-08T16:17:41.912Z,67.70
2018-12-08T16:20:12.921Z,68.00
2018-12-08T16:22:42.772Z,68.00
2018-12-08T16:25:12.340Z,68.10
2018-12-08T16:27:42.089Z,68.00
2018-12-08T16:30:11.821Z,67.90
2018-12-08T16:32:41.490Z,67.90
2018-12-08T16:35:11.148Z,67.90
2018-12-08T16:37:40.752Z,67.90
2018-12-08T16:40:10.493Z,67.90
2018-12-08T16:42:40.563Z,67.80
2018-12-08T16:45:10.457Z,67.60
2018-12-08T16:47:40.036Z,67.50
2018-12-08T16:50:10.200Z,67.60
2018-12-08T16:52:39.788Z,67.50
2018-12-08T16:55:09.389Z,67.40
2018-12-08T16:57:39.065Z,67.30
2018-12-08T17:00:09.048Z,67.30
2018-12-08T17:02:39.686Z,67.40
2018-12-08T17:05:09.818Z,67.30
2018-12-08T17:07:39.536Z,67.20
2018-12-08T17:10:09.258Z,67.30
2018-12-08T17:12:38.905Z,67.30
2018-12-08T17:15:08.680Z,67.30
2018-12-08T17:17:38.368Z,67.30
2018-12-08T17:20:09.905Z,67.40
2018-12-08T17:22:39.629Z,67.50
2018-12-08T17:25:09.299Z,67.60
2018-12-08T17:27:38.885Z,67.40
2018-12-08T17:30:08.812Z,67.40
2018-12-08T17:32:38.505Z,67.40
2018-12-08T17:35:09.055Z,67.40
2018-12-08T17:37:38.628Z,67.40
2018-12-08T17:40:08.667Z,67.30
2018-12-08T17:42:38.261Z,67.30
2018-12-08T17:45:08.055Z,67.30
2018-12-08T17:47:37.665Z,67.30
2018-12-08T17:50:07.969Z,67.00
2018-12-08T17:52:37.661Z,66.80
2018-12-08T17:55:07.469Z,67.00
2018-12-08T17:57:37.272Z,66.80
2018-12-08T18:00:07.240Z,66.80
2018-12-08T18:02:36.952Z,66.70
2018-12-08T18:05:06.573Z,66.60
2018-12-08T18:07:36.349Z,66.60
2018-12-08T18:10:07.100Z,66.50
2018-12-08T18:12:36.853Z,66.70
2018-12-08T18:15:06.707Z,66.70
2018-12-08T18:17:36.459Z,66.70
2018-12-08T18:20:06.781Z,66.70
2018-12-08T18:22:36.495Z,66.70
2018-12-08T18:25:06.389Z,66.80
2018-12-08T18:27:36.403Z,67.00
2018-12-08T18:30:07.040Z,67.00
2018-12-08T18:32:36.832Z,67.20
2018-12-08T18:37:36.097Z,67.20
2018-12-08T18:40:05.920Z,67.00
2018-12-08T18:42:35.744Z,67.10
2018-12-08T18:45:05.561Z,67.10
2018-12-08T18:47:35.241Z,67.10
2018-12-08T18:50:06.991Z,67.20
2018-12-08T18:52:36.865Z,67.20
2018-12-08T18:55:06.620Z,67.10
2018-12-08T18:57:36.412Z,67.10
2018-12-08T19:00:08.779Z,67.20
2018-12-08T19:02:38.492Z,67.20
2018-12-08T19:05:08.657Z,67.10
2018-12-08T19:07:38.340Z,67.10
2018-12-08T19:10:08.648Z,67.00
2018-12-08T19:12:38.315Z,67.20
2018-12-08T19:15:08.149Z,67.10
2018-12-08T19:17:37.853Z,67.20
2018-12-08T19:20:07.816Z,67.30
2018-12-08T19:22:37.486Z,67.40
2018-12-08T19:25:08.421Z,67.60
2018-12-08T19:27:38.030Z,67.70
2018-12-08T19:30:09.449Z,67.90
2018-12-08T19:32:40.089Z,68.10
2018-12-08T19:35:09.876Z,68.00
2018-12-08T19:37:39.445Z,68.10
2018-12-08T19:40:09.308Z,68.30
2018-12-08T19:42:40.524Z,68.40
2018-12-08T19:45:10.299Z,68.30
2018-12-08T19:47:40.103Z,68.40
2018-12-08T19:50:09.718Z,68.40
2018-12-08T19:52:40.276Z,68.30
2018-12-08T19:55:10.044Z,68.30
2018-12-08T19:57:39.648Z,68.40
2018-12-08T20:00:11.271Z,68.60
2018-12-08T20:02:40.995Z,68.50
2018-12-08T20:05:10.694Z,68.60
2018-12-08T20:07:40.267Z,68.80
2018-12-08T20:10:10.091Z,68.90
2018-12-08T20:12:39.682Z,68.90
2018-12-08T20:15:11.376Z,69.00
2018-12-08T20:17:40.971Z,69.00
2018-12-08T20:20:10.801Z,69.00
2018-12-08T20:22:40.513Z,69.10
2018-12-08T20:25:10.668Z,69.20
2018-12-08T20:27:40.320Z,69.20
2018-12-08T20:30:10.048Z,69.20
2018-12-08T20:32:39.786Z,69.30
2018-12-08T20:35:09.541Z,69.40
2018-12-08T20:37:39.152Z,69.40
2018-12-08T20:40:08.760Z,69.30
2018-12-08T20:42:38.668Z,69.30
2018-12-08T20:45:08.499Z,69.30
2018-12-08T20:47:38.215Z,69.30
2018-12-08T20:50:08.321Z,69.30
2018-12-08T20:52:38.001Z,69.40
2018-12-08T20:55:07.607Z,69.40
2018-12-08T20:57:37.237Z,69.60
2018-12-08T21:00:07.060Z,69.50
2018-12-08T21:02:37.625Z,69.40
2018-12-08T21:05:07.322Z,69.50
2018-12-08T21:07:37.853Z,69.30
2018-12-08T21:10:07.872Z,69.30
2018-12-08T21:12:37.634Z,69.30
2018-12-08T21:15:07.519Z,69.10
2018-12-08T21:17:37.180Z,69.10
2018-12-08T21:20:08.761Z,69.10
2018-12-08T21:22:38.872Z,69.00
2018-12-08T21:25:08.577Z,69.20
2018-12-08T21:27:38.155Z,69.00
2018-12-08T21:30:08.746Z,68.90
2018-12-08T21:32:38.895Z,69.20
2018-12-08T21:35:09.636Z,69.10
2018-12-08T21:37:40.661Z,69.20
2018-12-08T21:40:19.680Z,69.10
2018-12-08T21:42:50.090Z,69.20
2018-12-08T21:45:19.779Z,69.30
2018-12-08T21:47:49.489Z,69.00
2018-12-08T21:50:19.270Z,69.00
2018-12-08T21:52:48.844Z,69.00
2018-12-08T21:55:19.327Z,69.00
2018-12-08T21:57:49.037Z,69.10
2018-12-08T22:00:18.775Z,69.20
2018-12-08T22:02:48.409Z,69.50
2018-12-08T22:05:24.414Z,69.40
2018-12-08T22:07:54.049Z,69.50
2018-12-08T22:10:23.684Z,69.30
2018-12-08T22:12:53.306Z,69.60
2018-12-08T22:15:22.916Z,69.50
2018-12-08T22:17:52.701Z,69.70
2018-12-08T22:20:23.308Z,69.70
2018-12-08T22:22:53.541Z,69.60
2018-12-08T22:25:23.172Z,69.70
2018-12-08T22:27:55.030Z,69.70
2018-12-08T22:30:24.698Z,69.60
2018-12-08T22:32:54.424Z,69.70
2018-12-08T22:35:24.035Z,69.90
2018-12-08T22:37:53.628Z,69.80
2018-12-08T22:40:23.289Z,69.80
2018-12-08T22:42:52.880Z,69.90
2018-12-08T22:45:22.540Z,69.80
2018-12-08T22:47:52.181Z,69.80
2018-12-08T22:50:22.007Z,69.90
2018-12-08T22:52:52.275Z,70.00
2018-12-08T22:55:22.143Z,70.00
2018-12-08T22:57:51.862Z,70.00
2018-12-08T23:00:37.784Z,70.10
2018-12-08T23:03:08.508Z,70.00
2018-12-08T23:05:38.254Z,69.90
2018-12-08T23:10:44.678Z,69.90
2018-12-08T23:13:14.620Z,70.10
2018-12-08T23:15:44.195Z,69.90
2018-12-08T23:18:14.228Z,70.00
2018-12-08T23:20:44.862Z,69.90
2018-12-08T23:23:15.442Z,69.90
2018-12-08T23:25:45.052Z,70.00
2018-12-08T23:28:14.687Z,70.10
2018-12-08T23:30:44.549Z,70.20
2018-12-08T23:33:14.404Z,70.20
2018-12-08T23:35:44.122Z,70.20
2018-12-08T23:38:13.728Z,71.00
2018-12-08T23:40:44.377Z,70.50
2018-12-08T23:43:13.931Z,70.70
2018-12-08T23:45:43.554Z,70.70
2018-12-08T23:48:13.343Z,70.50
2018-12-08T23:50:43.002Z,70.50
2018-12-08T23:53:12.981Z,70.70
2018-12-08T23:58:18.844Z,70.70
